Hauptseite
METAR-TAF:

METAR-TAF

Flughäfen :

Tulcea, Rumänien

Breite: 45-11N, Länge: 028-49E, Höhe: 4 m

Beobachtung

Neuester Wetterbericht von vor 24 Minuten, um 03:30 UTC
Wind 8 kt aus Nord/Nordwest
Temperatur 20°C
Luftfeuchtigkeit 73%
Luftdruck 1013 hPa
Sichtweite: 8000 m

METAR: LRTC 160330Z AUTO 34008KT 8000 NCD 20/15 Q1013

Zeit: 06:54 (03:54 UTC)

Prognose

Neuester Wetterbericht von vor 13 Stunden und 54 Minuten, um 14:00 UTC
Gültige Prognose vom 15 um 15 UTC bis 15 um 24 UTC
Wind 10 kt aus Ost
Sichtweite 10 km oder mehr
keine Wolken unter 1500 m und keine Kumulonimbus oder Gewitterwolken
Übergehend zu
vom 15 um 17 UTC bis 15 um 19 UTC
Wind 3 kt aus unterschiedlichen Richtungen

TAF: LRTC 151400Z 1515/1524 09010KT CAVOK BECMG 1517/1519 VRB03KT

Wetterbeobachtungen und Prognosen von mehr als 4000 Flughäfen (METAR und TAF Bericht).

Die verfügbaren Stationen werden durch gelbe und rote Markierungen auf der Karte dargestellt.

Führen Sie die Maus auf sie, um den Namen der Station zu sehen.

Darauf klicken, um die Beobachtung von Wetterbeobachtungen und Prognosen zu sehen.

Um die Karte zu ändern : klicken Sie auf den grünen Tasten mit einem schwarzen Kreuz Zum Vergrößern, auf den grünen Button mit einem Gedankenstrich zu verkleinern, oder auf die grünen Pfeile für benachbarte Karten.


METAR-TAF: